Terminal Aerodrome Forecast
Issued by NWS Louisville, KY

Home | Current Version | Previous Version | Text Only | Print | Product List | Glossary Off
Versions: 1 2 3 4 5 6 7 8 9 10 11 12 13 14

000
FTUS43 KLMK 201700
TAFSDF
TAF
KSDF 201720Z 2018/2124 21012G18KT P6SM SCT050 BKN250
     FM202300 20008KT P6SM BKN250
     FM210700 22010KT P6SM SCT040 BKN250 WS010/25030KT
     FM211500 29012G18KT P6SM SCT040=

USA.gov is the U.S. government's official web portal to all federal, state and local government web resources and services.